createdAt,value
2023-02-21T00:00:49.467Z,60.06
2023-02-21T00:03:42.643Z,60.56
2023-02-21T00:06:29.440Z,60.76
2023-02-21T00:09:16.285Z,60.77
2023-02-21T00:12:03.595Z,60.67
2023-02-21T00:14:50.401Z,61.44
2023-02-21T00:17:37.250Z,61.04
2023-02-21T00:20:24.690Z,61.25
2023-02-21T00:23:11.397Z,59.90
2023-02-21T00:25:58.147Z,60.03
2023-02-21T00:28:45.042Z,59.45
2023-02-21T00:31:31.915Z,59.94
2023-02-21T00:34:18.827Z,60.61
2023-02-21T00:37:05.736Z,59.96
2023-02-21T00:39:52.502Z,59.73
2023-02-21T00:42:42.386Z,60.20
2023-02-21T00:45:29.815Z,60.57
2023-02-21T00:48:16.656Z,60.58
2023-02-21T00:51:03.399Z,60.15
2023-02-21T00:53:50.066Z,60.14
2023-02-21T00:56:37.744Z,60.84
2023-02-21T00:59:24.707Z,61.09
2023-02-21T01:02:11.562Z,62.06
2023-02-21T01:04:58.537Z,61.98
2023-02-21T01:07:45.336Z,62.01
2023-02-21T01:10:32.187Z,62.30
2023-02-21T01:13:19.628Z,61.84
2023-02-21T01:16:07.022Z,60.61
2023-02-21T01:18:53.766Z,61.83
2023-02-21T01:21:41.066Z,61.15
2023-02-21T01:24:32.059Z,60.39
2023-02-21T01:27:20.061Z,60.42
2023-02-21T01:30:08.921Z,60.33
2023-02-21T01:32:56.914Z,60.37
2023-02-21T01:35:44.004Z,60.00
2023-02-21T01:38:30.908Z,59.18
2023-02-21T01:41:18.958Z,59.60
2023-02-21T01:45:03.526Z,59.30
2023-02-21T01:47:51.256Z,58.54
2023-02-21T01:50:50.632Z,59.12
2023-02-21T01:53:44.656Z,58.59
2023-02-21T01:56:32.147Z,58.56
2023-02-21T01:59:21.567Z,58.54
2023-02-21T02:02:28.264Z,58.86
2023-02-21T02:05:17.256Z,58.90
2023-02-21T02:08:04.610Z,58.35
2023-02-21T02:10:51.887Z,58.07
2023-02-21T02:14:02.385Z,58.11
2023-02-21T02:16:56.697Z,57.78
2023-02-21T02:20:05.201Z,58.23
2023-02-21T02:23:17.215Z,57.72
2023-02-21T02:25:57.797Z,57.56
2023-02-21T02:28:53.814Z,57.70
2023-02-21T02:32:00.270Z,57.75
2023-02-21T02:34:37.830Z,58.06
2023-02-21T02:37:24.759Z,57.95
2023-02-21T02:40:42.074Z,58.03
2023-02-21T02:43:20.854Z,58.05
2023-02-21T02:46:04.925Z,58.10
2023-02-21T02:48:58.295Z,57.85
2023-02-21T02:51:27.148Z,57.66
2023-02-21T02:53:57.192Z,57.72
2023-02-21T02:56:26.862Z,57.36
2023-02-21T02:59:06.887Z,57.69
2023-02-21T03:01:51.807Z,58.00
2023-02-21T03:04:41.777Z,57.93
2023-02-21T03:08:05.817Z,58.12
2023-02-21T03:11:25.213Z,58.06
2023-02-21T03:14:13.684Z,57.92
2023-02-21T03:16:54.586Z,57.48
2023-02-21T03:19:33.605Z,57.59
2023-02-21T03:22:07.909Z,57.52
2023-02-21T03:24:40.536Z,57.42
2023-02-21T03:27:09.641Z,57.48
2023-02-21T03:30:11.852Z,57.10
2023-02-21T03:32:52.175Z,56.89
2023-02-21T03:35:22.803Z,57.12
2023-02-21T03:37:54.033Z,56.80
2023-02-21T03:40:32.968Z,56.81
2023-02-21T03:43:07.963Z,56.89
2023-02-21T03:45:42.546Z,56.77
2023-02-21T03:48:20.221Z,56.62
2023-02-21T03:50:51.901Z,56.88
2023-02-21T03:53:20.760Z,56.84
2023-02-21T03:55:49.427Z,56.49
2023-02-21T03:58:24.557Z,56.53
2023-02-21T04:00:54.546Z,56.62
2023-02-21T04:03:23.897Z,56.13
2023-02-21T04:05:56.514Z,56.03
2023-02-21T04:08:25.459Z,56.06
2023-02-21T04:10:53.933Z,55.96
2023-02-21T04:13:25.165Z,56.05
2023-02-21T04:15:54.282Z,55.82
2023-02-21T04:18:23.526Z,56.08
2023-02-21T04:20:53.657Z,56.06
2023-02-21T04:23:23.429Z,55.94
2023-02-21T04:25:51.995Z,56.16
2023-02-21T04:28:27.040Z,56.24
2023-02-21T04:30:55.583Z,56.39
2023-02-21T04:33:24.148Z,55.93
2023-02-21T04:35:55.620Z,55.91
2023-02-21T04:38:27.111Z,56.32
2023-02-21T04:40:55.601Z,56.45
2023-02-21T04:43:25.314Z,56.77
2023-02-21T04:45:53.784Z,56.74
2023-02-21T04:48:22.226Z,57.05
2023-02-21T04:50:50.953Z,57.02
2023-02-21T04:53:19.452Z,57.18
2023-02-21T04:55:47.835Z,57.32
2023-02-21T04:58:16.305Z,57.38
2023-02-21T05:00:44.992Z,57.58
2023-02-21T05:03:13.572Z,57.79
2023-02-21T05:05:42.023Z,57.90
2023-02-21T05:08:10.479Z,58.20
2023-02-21T05:10:45.558Z,58.17
2023-02-21T05:13:16.431Z,57.95
2023-02-21T05:15:45.768Z,58.17
2023-02-21T05:18:14.357Z,58.16
2023-02-21T05:20:43.006Z,58.32
2023-02-21T05:23:14.013Z,58.20
2023-02-21T05:25:43.488Z,58.04
2023-02-21T05:28:11.989Z,57.73
2023-02-21T05:30:40.798Z,57.94
2023-02-21T05:33:31.067Z,57.92
2023-02-21T05:36:19.400Z,57.92
2023-02-21T05:38:53.169Z,57.91
2023-02-21T05:41:22.593Z,58.00
2023-02-21T05:43:51.797Z,58.07
2023-02-21T05:46:25.010Z,58.23
2023-02-21T05:48:56.771Z,58.31
2023-02-21T05:51:27.378Z,57.99
2023-02-21T05:53:56.036Z,58.03
2023-02-21T05:56:24.617Z,57.75
2023-02-21T05:58:53.158Z,57.93
2023-02-21T06:01:21.701Z,57.69
2023-02-21T06:03:50.387Z,57.57
2023-02-21T06:06:19.232Z,57.53
2023-02-21T06:08:50.326Z,56.46
2023-02-21T06:11:33.374Z,56.55
2023-02-21T06:14:05.456Z,56.81
2023-02-21T06:17:05.824Z,56.49
2023-02-21T06:19:34.385Z,56.45
2023-02-21T06:22:02.913Z,56.29
2023-02-21T06:24:31.441Z,56.38
2023-02-21T06:26:59.899Z,56.32
2023-02-21T06:29:28.375Z,56.00
2023-02-21T06:31:59.845Z,56.21
2023-02-21T06:34:28.648Z,55.81
2023-02-21T06:36:57.341Z,55.61
2023-02-21T06:39:25.859Z,55.56
2023-02-21T06:41:54.376Z,55.62
2023-02-21T06:44:22.905Z,55.53
2023-02-21T06:46:51.516Z,55.44
2023-02-21T06:49:20.187Z,55.73
2023-02-21T06:51:48.600Z,55.49
2023-02-21T06:54:17.279Z,55.42
2023-02-21T06:56:45.865Z,54.97
2023-02-21T06:59:14.336Z,55.04
2023-02-21T07:01:43.275Z,55.01
2023-02-21T07:04:11.902Z,54.71
2023-02-21T07:06:40.394Z,54.58
2023-02-21T07:09:09.104Z,53.99
2023-02-21T07:11:38.061Z,53.68
2023-02-21T07:14:07.119Z,53.66
2023-02-21T07:16:35.728Z,53.91
2023-02-21T07:19:06.755Z,53.60
2023-02-21T07:21:35.366Z,53.70
2023-02-21T07:24:05.033Z,53.08
2023-02-21T07:26:34.948Z,52.84
2023-02-21T07:29:06.011Z,52.87
2023-02-21T07:31:34.724Z,52.70
2023-02-21T07:34:05.784Z,52.61
2023-02-21T07:36:46.996Z,52.64
2023-02-21T07:39:15.804Z,52.17
2023-02-21T07:41:44.493Z,52.20
2023-02-21T07:44:23.551Z,51.67
2023-02-21T07:46:52.079Z,51.80
2023-02-21T07:49:20.585Z,51.40
2023-02-21T07:51:49.485Z,51.33
2023-02-21T07:54:18.962Z,51.25
2023-02-21T07:56:50.232Z,50.79
2023-02-21T07:59:18.706Z,50.82
2023-02-21T08:01:48.099Z,51.03
2023-02-21T08:04:21.265Z,50.80
2023-02-21T08:06:50.599Z,49.82
2023-02-21T08:09:19.277Z,49.83
2023-02-21T08:11:47.802Z,49.37
2023-02-21T08:14:16.482Z,49.24
2023-02-21T08:16:44.987Z,48.98
2023-02-21T08:19:13.453Z,48.97
2023-02-21T08:21:50.310Z,48.75
2023-02-21T08:24:20.367Z,48.38
2023-02-21T08:26:48.812Z,48.31
2023-02-21T08:29:18.245Z,47.97
2023-02-21T08:31:46.790Z,47.53
2023-02-21T08:34:15.366Z,47.41
2023-02-21T08:36:44.442Z,47.71
2023-02-21T08:39:15.191Z,47.85
2023-02-21T08:42:35.653Z,47.39
2023-02-21T08:45:04.557Z,47.01
2023-02-21T08:47:37.092Z,46.65
2023-02-21T08:50:06.499Z,46.00
2023-02-21T08:52:35.085Z,45.97
2023-02-21T08:55:04.226Z,46.01
2023-02-21T08:57:34.817Z,45.74
2023-02-21T09:00:07.034Z,45.47
2023-02-21T09:02:35.646Z,45.71
2023-02-21T09:05:04.586Z,45.13
2023-02-21T09:07:33.680Z,44.90
2023-02-21T09:10:04.354Z,44.75
2023-02-21T09:12:57.402Z,44.61
2023-02-21T09:15:39.438Z,44.48
2023-02-21T09:22:01.688Z,44.57
2023-02-21T09:24:42.982Z,44.32
2023-02-21T09:27:10.263Z,44.25
2023-02-21T09:29:46.267Z,44.29
2023-02-21T09:32:22.225Z,44.16
2023-02-21T09:35:05.101Z,44.33
2023-02-21T09:37:32.410Z,43.80
2023-02-21T09:40:27.144Z,44.09
2023-02-21T09:43:00.968Z,43.68
2023-02-21T09:45:32.789Z,43.74
2023-02-21T09:48:07.239Z,42.71
2023-02-21T09:50:42.106Z,42.97
2023-02-21T09:53:16.428Z,42.96
2023-02-21T09:55:43.565Z,43.19
2023-02-21T09:58:18.303Z,42.56
2023-02-21T10:01:30.738Z,42.83
2023-02-21T10:04:35.432Z,42.62
2023-02-21T10:07:10.962Z,42.34
2023-02-21T10:10:01.844Z,42.67
2023-02-21T10:13:01.654Z,41.26
2023-02-21T10:15:45.350Z,39.84
2023-02-21T10:18:44.657Z,40.22
2023-02-21T10:21:24.383Z,40.63
2023-02-21T10:23:57.492Z,39.70
2023-02-21T10:26:28.189Z,39.22
2023-02-21T10:28:59.876Z,39.33
2023-02-21T10:31:34.990Z,39.19
2023-02-21T10:34:07.055Z,39.18
2023-02-21T10:36:37.832Z,38.29
2023-02-21T10:39:23.974Z,38.54
2023-02-21T10:42:37.119Z,39.16
2023-02-21T10:45:04.506Z,39.49
2023-02-21T10:48:04.630Z,39.21
2023-02-21T10:51:12.282Z,39.19
2023-02-21T10:53:57.850Z,39.28
2023-02-21T10:56:27.736Z,39.78
2023-02-21T10:59:05.840Z,39.67
2023-02-21T11:01:44.853Z,39.84
2023-02-21T11:04:15.884Z,39.13
2023-02-21T11:07:04.653Z,38.96
2023-02-21T11:09:37.850Z,37.57
2023-02-21T11:12:26.640Z,37.09
2023-02-21T11:14:54.161Z,37.30
2023-02-21T11:17:29.306Z,37.36
2023-02-21T11:24:04.449Z,36.70
2023-02-21T11:27:21.002Z,35.69
2023-02-21T11:30:04.267Z,34.47
2023-02-21T11:32:41.573Z,34.90
2023-02-21T11:35:21.687Z,34.60
2023-02-21T11:38:28.725Z,33.82
2023-02-21T11:40:58.030Z,34.20
2023-02-21T11:43:29.460Z,34.70
2023-02-21T11:46:11.436Z,34.76
2023-02-21T11:49:14.906Z,35.70
2023-02-21T11:51:59.120Z,36.13
2023-02-21T11:54:32.954Z,36.17
2023-02-21T11:57:45.164Z,35.55
2023-02-21T12:00:35.573Z,35.31
2023-02-21T12:03:30.157Z,35.59
2023-02-21T12:07:06.726Z,35.76
2023-02-21T12:10:23.478Z,35.90
2023-02-21T12:13:02.231Z,36.18
2023-02-21T12:16:28.365Z,36.01
2023-02-21T12:19:11.111Z,36.09
2023-02-21T12:22:11.616Z,35.81
2023-02-21T12:25:25.187Z,35.55
2023-02-21T12:28:21.919Z,35.45
2023-02-21T12:31:27.279Z,35.45
2023-02-21T12:34:26.969Z,36.05
2023-02-21T12:37:47.932Z,36.36
2023-02-21T12:40:57.534Z,35.93
2023-02-21T12:43:52.933Z,36.13
2023-02-21T12:46:50.529Z,36.22
2023-02-21T12:49:36.661Z,36.28
2023-02-21T12:52:15.644Z,36.37
2023-02-21T12:55:29.803Z,36.57
2023-02-21T12:58:32.881Z,36.21
2023-02-21T13:01:16.499Z,35.38
2023-02-21T13:04:01.572Z,34.92
2023-02-21T13:06:37.553Z,34.49
2023-02-21T13:09:06.043Z,33.24
2023-02-21T13:11:52.616Z,33.45
2023-02-21T13:14:29.172Z,33.50
2023-02-21T13:16:57.972Z,33.38
2023-02-21T13:19:32.964Z,33.51
2023-02-21T13:23:33.344Z,32.98
2023-02-21T13:26:43.060Z,32.24
2023-02-21T13:29:29.378Z,31.46
2023-02-21T13:32:09.355Z,31.31
2023-02-21T13:35:00.051Z,31.55
2023-02-21T13:37:35.917Z,31.79
2023-02-21T13:40:35.763Z,31.91
2023-02-21T13:43:16.531Z,31.48
2023-02-21T13:45:45.961Z,31.38
2023-02-21T13:48:25.038Z,31.71
2023-02-21T13:50:59.760Z,32.06
2023-02-21T13:53:54.712Z,32.54
2023-02-21T13:56:43.493Z,33.83
2023-02-21T13:59:35.482Z,34.48
2023-02-21T14:02:33.057Z,35.06
2023-02-21T14:05:06.520Z,35.63
2023-02-21T14:07:48.650Z,36.09
2023-02-21T14:10:33.882Z,37.44
2023-02-21T14:13:07.710Z,41.13
2023-02-21T14:15:44.268Z,44.53
2023-02-21T14:18:27.191Z,46.30
2023-02-21T14:20:58.505Z,48.60
2023-02-21T14:24:15.545Z,50.44
2023-02-21T14:26:53.986Z,52.03
2023-02-21T14:30:11.451Z,52.91
2023-02-21T14:32:53.230Z,53.84
2023-02-21T14:35:56.410Z,54.50
2023-02-21T14:38:29.514Z,55.44
2023-02-21T14:41:53.478Z,55.79
2023-02-21T14:45:10.379Z,56.96
2023-02-21T14:48:32.644Z,57.02
2023-02-21T14:51:44.525Z,57.45
2023-02-21T14:54:29.470Z,58.02
2023-02-21T14:57:22.498Z,58.14
2023-02-21T15:00:19.141Z,58.35
2023-02-21T15:03:51.989Z,58.76
2023-02-21T15:06:26.104Z,58.83
2023-02-21T15:08:55.107Z,59.07
2023-02-21T15:11:40.635Z,59.31
2023-02-21T15:14:24.534Z,59.49
2023-02-21T15:17:24.308Z,59.89
2023-02-21T15:20:19.201Z,60.41
2023-02-21T15:22:57.825Z,60.79
2023-02-21T15:25:26.287Z,60.77
2023-02-21T15:27:59.040Z,61.26
2023-02-21T15:30:38.604Z,61.49
2023-02-21T15:33:21.373Z,61.68
2023-02-21T15:36:05.376Z,62.63
2023-02-21T15:39:33.961Z,63.34
2023-02-21T15:42:08.048Z,63.76
2023-02-21T15:44:47.639Z,64.20
2023-02-21T15:47:22.049Z,64.50
2023-02-21T15:50:28.107Z,63.90
2023-02-21T15:52:57.040Z,64.01
2023-02-21T15:55:25.997Z,63.76
2023-02-21T15:58:16.813Z,62.89
2023-02-21T16:01:07.155Z,61.89
2023-02-21T16:03:41.285Z,61.09
2023-02-21T16:06:32.382Z,60.72
2023-02-21T16:09:28.587Z,60.44
2023-02-21T16:12:27.070Z,60.70
2023-02-21T16:15:18.482Z,60.63
2023-02-21T16:17:56.801Z,60.66
2023-02-21T16:20:33.597Z,60.66
2023-02-21T16:23:30.384Z,60.91
2023-02-21T16:26:12.520Z,60.87
2023-02-21T16:28:42.209Z,60.89
2023-02-21T16:31:18.182Z,60.78
2023-02-21T16:33:50.278Z,60.94
2023-02-21T16:36:29.340Z,60.93
2023-02-21T16:39:01.944Z,60.60
2023-02-21T16:41:30.513Z,60.58
2023-02-21T16:43:59.029Z,60.62
2023-02-21T16:46:57.742Z,60.32
2023-02-21T16:49:26.931Z,60.31
2023-02-21T16:51:55.564Z,60.19
2023-02-21T16:54:24.331Z,60.00
2023-02-21T16:56:54.420Z,59.99
2023-02-21T16:59:24.942Z,59.88
2023-02-21T17:01:53.602Z,59.91
2023-02-21T17:04:27.090Z,59.94
2023-02-21T17:07:03.713Z,60.48
2023-02-21T17:09:39.370Z,60.52
2023-02-21T17:12:08.893Z,60.85
2023-02-21T17:14:37.414Z,61.01
2023-02-21T17:17:05.996Z,61.55
2023-02-21T17:19:34.430Z,61.37
2023-02-21T17:22:03.048Z,62.13
2023-02-21T17:24:31.679Z,62.13
2023-02-21T17:27:01.526Z,62.07
2023-02-21T17:29:30.444Z,62.43
2023-02-21T17:31:59.194Z,62.80
2023-02-21T17:34:27.796Z,62.93
2023-02-21T17:36:56.312Z,62.67
2023-02-21T17:39:24.855Z,62.94
2023-02-21T17:41:53.850Z,62.83
2023-02-21T17:44:22.904Z,63.27
2023-02-21T17:47:00.689Z,63.70
2023-02-21T17:49:29.225Z,63.40
2023-02-21T17:51:57.786Z,63.66
2023-02-21T17:54:26.298Z,64.01
2023-02-21T17:56:54.753Z,64.94
2023-02-21T17:59:23.299Z,65.69
2023-02-21T18:01:55.690Z,66.21
2023-02-21T18:04:24.917Z,66.78
2023-02-21T18:06:53.461Z,67.69
2023-02-21T18:09:22.837Z,68.28
2023-02-21T18:11:54.264Z,69.07
2023-02-21T18:14:25.637Z,69.72
2023-02-21T18:16:56.494Z,70.10
2023-02-21T18:19:26.013Z,70.29
2023-02-21T18:22:18.588Z,70.48
2023-02-21T18:24:47.032Z,70.21
2023-02-21T18:27:16.181Z,70.50
2023-02-21T18:29:45.048Z,70.33
2023-02-21T18:32:14.168Z,70.17
2023-02-21T18:34:43.510Z,70.07
2023-02-21T18:37:12.102Z,70.33
2023-02-21T18:39:40.666Z,70.75
2023-02-21T18:42:09.203Z,71.12
2023-02-21T18:44:37.804Z,71.13
2023-02-21T18:47:06.521Z,70.79
2023-02-21T18:49:38.869Z,71.36
2023-02-21T18:52:08.332Z,71.37
2023-02-21T18:54:37.038Z,70.99
2023-02-21T18:57:05.719Z,70.91
2023-02-21T18:59:35.324Z,71.04
2023-02-21T19:02:04.528Z,70.76
2023-02-21T19:04:33.716Z,70.76
2023-02-21T19:07:08.444Z,70.52
2023-02-21T19:09:37.021Z,69.94
2023-02-21T19:12:09.681Z,69.32
2023-02-21T19:14:39.271Z,68.92
2023-02-21T19:17:09.446Z,68.80
2023-02-21T19:19:39.110Z,68.51
2023-02-21T19:22:10.997Z,68.84
2023-02-21T19:24:40.686Z,69.47
2023-02-21T19:27:10.053Z,69.76
2023-02-21T19:29:38.998Z,70.14
2023-02-21T19:32:08.541Z,70.27
2023-02-21T19:34:50.474Z,69.98
2023-02-21T19:37:22.185Z,69.77
2023-02-21T19:39:51.710Z,69.27
2023-02-21T19:42:20.662Z,69.41
2023-02-21T19:44:49.314Z,69.00
2023-02-21T19:47:17.894Z,69.10
2023-02-21T19:49:47.783Z,69.17
2023-02-21T19:52:16.348Z,69.28
2023-02-21T19:54:47.251Z,69.61
2023-02-21T19:57:20.717Z,69.57
2023-02-21T19:59:49.405Z,69.55
2023-02-21T20:02:20.907Z,69.09
2023-02-21T20:04:50.520Z,69.01
2023-02-21T20:10:57.384Z,68.64
2023-02-21T20:13:26.036Z,68.39
2023-02-21T20:15:54.637Z,68.22
2023-02-21T20:18:23.291Z,68.52
2023-02-21T20:20:53.120Z,68.88
2023-02-21T20:23:22.232Z,68.88
2023-02-21T20:25:52.311Z,68.67
2023-02-21T20:28:21.154Z,68.64
2023-02-21T20:30:50.188Z,68.26
2023-02-21T20:33:20.893Z,68.05
2023-02-21T20:35:51.161Z,68.51
2023-02-21T20:38:21.658Z,68.16
2023-02-21T20:40:54.926Z,68.37
2023-02-21T20:43:27.752Z,68.72
2023-02-21T20:45:56.455Z,69.22
2023-02-21T20:48:25.863Z,68.93
2023-02-21T20:50:55.106Z,68.65
2023-02-21T20:53:23.920Z,68.64
2023-02-21T20:55:55.202Z,69.07
2023-02-21T20:58:24.842Z,69.94
2023-02-21T21:00:54.252Z,69.89
2023-02-21T21:03:24.723Z,70.19
2023-02-21T21:05:53.366Z,70.21
2023-02-21T21:08:22.008Z,70.08
2023-02-21T21:10:51.054Z,70.29
2023-02-21T21:13:19.749Z,70.19
2023-02-21T21:15:49.845Z,70.29
2023-02-21T21:18:18.451Z,70.29
2023-02-21T21:20:47.032Z,70.61
2023-02-21T21:23:15.717Z,70.72
2023-02-21T21:25:44.247Z,70.72
2023-02-21T21:28:13.431Z,70.49
2023-02-21T21:30:42.903Z,70.32
2023-02-21T21:33:11.480Z,70.70
2023-02-21T21:35:39.974Z,70.76
2023-02-21T21:38:08.530Z,71.17
2023-02-21T21:40:36.992Z,72.36
2023-02-21T21:43:07.771Z,72.50
2023-02-21T21:45:44.606Z,72.74
2023-02-21T21:48:15.139Z,73.32
2023-02-21T21:53:51.966Z,73.77
2023-02-21T21:56:28.054Z,73.94
2023-02-21T21:58:56.663Z,74.04
2023-02-21T22:01:26.738Z,74.34
2023-02-21T22:03:55.254Z,74.66
2023-02-21T22:06:23.725Z,74.84
2023-02-21T22:08:54.365Z,75.15
2023-02-21T22:11:22.910Z,75.34
2023-02-21T22:13:51.465Z,75.85
2023-02-21T22:16:20.199Z,76.10
2023-02-21T22:18:49.000Z,76.40
2023-02-21T22:21:17.826Z,76.20
2023-02-21T22:23:48.616Z,76.48
2023-02-21T22:26:21.331Z,76.44
2023-02-21T22:28:50.028Z,76.92
2023-02-21T22:31:19.270Z,76.80
2023-02-21T22:33:47.868Z,76.93
2023-02-21T22:36:18.330Z,76.92
2023-02-21T22:38:49.418Z,76.95
2023-02-21T22:41:31.890Z,76.74
2023-02-21T22:44:00.840Z,76.68
2023-02-21T22:46:42.710Z,76.38
2023-02-21T22:49:12.224Z,75.68
2023-02-21T22:51:40.716Z,75.94
2023-02-21T22:54:14.700Z,75.93
2023-02-21T22:56:52.643Z,76.18
2023-02-21T22:59:24.455Z,76.34
2023-02-21T23:01:53.882Z,76.61
2023-02-21T23:04:28.277Z,76.67
2023-02-21T23:06:59.436Z,76.53
2023-02-21T23:09:30.672Z,76.70
2023-02-21T23:12:01.019Z,76.61
2023-02-21T23:14:35.177Z,76.39
2023-02-21T23:17:04.174Z,76.63
2023-02-21T23:19:32.748Z,76.27
2023-02-21T23:22:01.531Z,75.84
2023-02-21T23:24:30.088Z,75.59
2023-02-21T23:26:58.570Z,75.77
2023-02-21T23:29:27.091Z,75.92
2023-02-21T23:32:09.980Z,76.10
2023-02-21T23:34:41.699Z,76.14
2023-02-21T23:37:12.766Z,76.16
2023-02-21T23:39:46.838Z,76.16
2023-02-21T23:42:17.633Z,76.54
2023-02-21T23:44:46.208Z,76.18
2023-02-21T23:47:14.779Z,75.99
2023-02-21T23:49:44.425Z,76.49
2023-02-21T23:52:13.059Z,76.27
2023-02-21T23:54:41.572Z,75.82
2023-02-21T23:57:10.214Z,75.80
2023-02-21T23:59:38.717Z,75.61
